INFORMAÇÕES DO AERODROMO
Icao Aerodromo KLGU Nome do Aerodromo Logan Cache Airport Cidade Logan
Código GPS KLGU Elevação Média 4457 ft Tipo de Aerodromo Aeroporto Médio Porte

INFORMAÇÃO DE PISTA
Pista 05 Comprimento da Pista 5007 ft Largura da Pista 150 ft
Elevação da Pista 4438 ft Distância de Area de Escape da Pista 0 ft Orientação da Pista 64
Pista 23 Comprimento da Pista 5007 ft Largura da Pista 150 ft
Elevação da Pista 4445 ft Distância de Area de Escape da Pista 0 ft Orientação da Pista 244
Pista 10 Comprimento da Pista 5005 ft Largura da Pista 75 ft
Elevação da Pista 4440 ft Distância de Area de Escape da Pista 0 ft Orientação da Pista 122
Pista 28 Comprimento da Pista 5005 ft Largura da Pista 75 ft
Elevação da Pista 4452 ft Distância de Area de Escape da Pista 215 ft Orientação da Pista 302
Pista 17 Comprimento da Pista 9095 ft Largura da Pista 100 ft
Elevação da Pista 4457 ft Distância de Area de Escape da Pista 0 ft Orientação da Pista 183
Pista 35 Comprimento da Pista 9095 ft Largura da Pista 100 ft
Elevação da Pista 4457 ft Distância de Area de Escape da Pista 0 ft Orientação da Pista 3

FREQUÊNCIAS DO AERODROMO
Tipo ASOS Nome ASOS Frequência 135.275 MHZ
Tipo RDO Nome CEDAR CITY Frequência 122.2 MHZ
Tipo UNIC Nome CTAF/UNICO Frequência 122.8 MHZ

INFORMAÇÕES DE NAVEGAÇÃO PRÓXIMO AO AERODROMO

Informações de Meteorologia(METAR atual)
METAR DE KLGU
ADDS - METARS form results

(0255 UTC 06 December 2019)
Data provider http://aviationweather.gov/metar/data/
 
METAR text: KLGU 060251Z AUTO 00000KT 1 1/4SM BR BKN007 M01/M01 A3027 RMK AO2 SLP271 60000 T10061011 53008
Conditions at: KLGU (LOGAN , UT, US) observed 0251 UTC 06 December 2019
Temperature: -0.6°C (31°F)
Dewpoint: -1.1°C (30°F) [RH = 96%]
Pressure (altimeter): 30.27 inches Hg (1025.1 mb)
[Sea-level pressure: 1027.1 mb]
Winds: calm
Visibility: 1.25 miles (2.01 km)
Ceiling: 700 feet AGL
Clouds: broken clouds at 700 feet AGL
Weather: BR  (mist)

METAR text: KLGU 060219Z AUTO 33003KT 1 1/4SM BR OVC007 M01/M01 A3026 RMK AO2 T10061011
Conditions at: KLGU (LOGAN , UT, US) observed 0219 UTC 06 December 2019
Temperature: -0.6°C (31°F)
Dewpoint: -1.1°C (30°F) [RH = 96%]
Pressure (altimeter): 30.26 inches Hg (1024.8 mb)
Winds: from the NNW (330 degrees) at 3 MPH (3 knots; 1.5 m/s)
Visibility: 1.25 miles (2.01 km)
Ceiling: 700 feet AGL
Clouds: overcast cloud deck at 700 feet AGL
Weather: BR  (mist)

METAR text: KLGU 060204Z AUTO 00000KT 1 1/2SM BR OVC008 M01/M01 A3025 RMK AO2 T10061011
Conditions at: KLGU (LOGAN , UT, US) observed 0204 UTC 06 December 2019
Temperature: -0.6°C (31°F)
Dewpoint: -1.1°C (30°F) [RH = 96%]
Pressure (altimeter): 30.25 inches Hg (1024.5 mb)
Winds: calm
Visibility: 1.50 miles (2.41 km)
Ceiling: 800 feet AGL
Clouds: overcast cloud deck at 800 feet AGL
Weather: BR  (mist)

Forecast for: KLGU (LOGAN , UT, US)
Text: KLGU 052339Z 0600/0624 VRB03KT 1SM BR OVC008
Forecast period: 0000 to 1000 UTC 06 December 2019
Forecast type: FROM: standard forecast or significant change
Winds: variable direction winds at 3 MPH (3 knots; 1.5 m/s)
Visibility: 1.00 miles (1.61 km)
Ceiling: 800 feet AGL
Clouds: overcast cloud deck at 800 feet AGL
Weather: BR  (mist)
Text: FM061000 00000KT 1/2SM FG OVC004
Forecast period: 1000 to 1600 UTC 06 December 2019
Forecast type: FROM: standard forecast or significant change
Winds: calm
Visibility: 0.50 miles (0.80 km)
Ceiling: 400 feet AGL
Clouds: overcast cloud deck at 400 feet AGL
Weather: FG  (fog)
Text: FM061600 VRB03KT 2SM BR OVC005
Forecast period: 1600 to 2000 UTC 06 December 2019
Forecast type: FROM: standard forecast or significant change
Winds: variable direction winds at 3 MPH (3 knots; 1.5 m/s)
Visibility: 2.00 miles (3.22 km)
Ceiling: 500 feet AGL
Clouds: overcast cloud deck at 500 feet AGL
Weather: BR  (mist)
Text: FM062000 27003KT 6SM HZ BKN005 OVC050
Forecast period: 2000 UTC 06 December 2019 to 0000 UTC 07 December 2019
Forecast type: FROM: standard forecast or significant change
Winds: from the W (270 degrees) at 3 MPH (3 knots; 1.5 m/s)
Visibility: 6 miles (10 km)
Ceiling: 500 feet AGL
Clouds: broken clouds at 500 feet AGL
overcast cloud deck at 5000 feet AGL
Weather: HZ  (haze)

MAPA DO AERODROMO


Desenvolvido por Virtual Airlines Manager




Modificado por Servidor Brasil Amigos